Aérodrome :
LOGIN :

S'inscrire | Disclaimer

   EN    FR    IT 

 










Légende :    VFR   VFR Marginal   IFR   IFR Intensif   IFR Très Intensif
Visi : 
Plafond : 
>= 8 km
>= 3000ft
5 à 8 km
1000 à 3000 ft
1500m à 5 km
500 à 1000 ft
800 à 1500m
200 à 500 ft
< 800m
< 200 ft
Symboles :   Orages  Brouillard  Fortes neiges  Fortes précipitations  Vent > 20 kt
SIGMETs :   Divers  Orages  Givrage  Turbulence  Onde Orograph.  Cendres Volcan.






- Altitude de l'aérodrome : 5600 ft
- Code IATA : SMV


LSZS - Samedan

DERNIER METAR :
  • 050720Z VRB02KT 9999 FEW004 BKN047 09/07 Q1014 RMK D TL170

METARs EXPIRÉS :
  • 050650Z 15002KT 9999 FEW004 BKN047 08/07 Q1014 RMK C TL170
  • 050620Z VRB02KT 9999 FEW004 BKN047 08/07 Q1014 RMK B TL170
  • 050550Z 03004KT 360V080 6000 -DZ SCT004 BKN050 07/07 Q1014 RMK A TL170
  • 050520Z AUTO 03004KT 9999 FEW003 BKN044 BKN049 07/07 Q1014 REDZ
  • 050450Z AUTO 17001KT 9999 DZ FEW006 BKN045 BKN050 07/07 Q1014

TAF TAF LSZS
Valide du 05 à 06h jusqu'au 05 à 15h UTC


050525Z 0506/0515 VRB02KT 9999 FEW006 BKN045 TX17/0513Z
PROB40
TEMPO 0506/0509 4000 RA BKN010
ATIS : +41 81 834 93 24



MET'MAP, la Météo Aéronautique d'un coup d'oeil ! - Copyright ORBIFLY Décembre 2007 - Disclaimer

ORBIFLY MET'MAP TEAM :

Programmation & Développement : Alexandra Zaïnal
Sur une idée originale de : Baudouin d'Aumeries
Assistance à la programmation : Marc-Olivier Méhu
Soutien technique & logistique : Manuel Goepfert

Contact : metmap@orbifly.com




SOURCES & CREDITS :

   NOAA